Time;durP1;ratioP1;P1;durP2;ratioP2;P2;SDS_P1;SDS_P2;PMS_P1;PMS_P2;Temp;Humidity;BMP_temperature;BMP_pressure;BME280_temperature;BME280_humidity;BME280_pressure;Samples;Min_cycle;Max_cycle;Signal;HPM_P1;HPM_P2
2022/03/20 00:01:23;;;;;;;34.42;10.90;;;15.10;49.10;;;;;;6125419;28;20453;-67
2022/03/20 00:04:24;;;;;;;27.35;12.00;;;15.10;49.10;;;;;;6123312;29;20035;-67
2022/03/20 00:07:25;;;;;;;25.10;11.13;;;15.20;49.30;;;;;;6125318;28;20062;-67
2022/03/20 00:10:26;;;;;;;25.30;11.00;;;15.20;49.20;;;;;;6123691;29;20036;-67
2022/03/20 00:13:27;;;;;;;23.27;11.63;;;15.20;49.40;;;;;;6123249;29;20095;-67
2022/03/20 00:16:29;;;;;;;23.90;11.70;;;15.20;49.40;;;;;;6124768;28;20032;-67
2022/03/20 00:19:32;;;;;;;29.63;12.00;;;15.10;49.40;;;;;;6124747;28;20044;-66
2022/03/20 00:22:34;;;;;;;29.88;12.05;;;15.10;49.50;;;;;;6124796;28;20024;-67
2022/03/20 00:25:42;;;;;;;28.90;11.52;;;15.10;49.60;;;;;;6122977;29;20068;-67
2022/03/20 00:28:44;;;;;;;29.48;11.77;;;15.00;49.70;;;;;;6122828;28;20627;-67
2022/03/20 00:31:45;;;;;;;39.03;11.70;;;14.90;49.80;;;;;;6121873;28;20039;-66
2022/03/20 00:34:46;;;;;;;25.58;10.90;;;14.90;50.00;;;;;;6123570;28;20516;-67
2022/03/20 00:37:47;;;;;;;39.83;11.75;;;14.80;50.00;;;;;;6124666;28;20048;-67
2022/03/20 00:40:47;;;;;;;24.83;11.07;;;14.80;50.10;;;;;;6123426;28;20059;-66
2022/03/20 00:43:48;;;;;;;36.15;12.02;;;14.80;50.10;;;;;;6121767;28;20036;-66
2022/03/20 00:46:49;;;;;;;33.97;12.27;;;14.80;50.20;;;;;;6107082;28;20051;-66
2022/03/20 00:49:50;;;;;;;32.97;10.95;;;14.80;50.20;;;;;;6124190;28;20044;-67
2022/03/20 00:52:51;;;;;;;32.35;12.60;;;14.80;50.20;;;;;;6124174;28;20122;-66
2022/03/20 00:55:52;;;;;;;28.70;11.45;;;14.80;50.20;;;;;;6120763;28;20370;-66
2022/03/20 00:58:53;;;;;;;29.75;12.38;;;14.80;50.30;;;;;;6123865;28;20496;-68
2022/03/20 01:01:55;;;;;;;26.95;11.50;;;14.80;50.50;;;;;;6106698;28;20051;-68
2022/03/20 01:04:55;;;;;;;32.08;12.13;;;14.80;50.50;;;;;;6123302;28;20040;-67
2022/03/20 01:07:59;;;;;;;35.05;12.60;;;14.80;50.50;;;;;;6123477;28;20115;-67
2022/03/20 01:10:59;;;;;;;25.67;11.38;;;14.70;50.50;;;;;;6122848;28;20453;-67
2022/03/20 01:14:01;;;;;;;30.58;11.18;;;14.70;50.60;;;;;;6105472;28;20032;-68
2022/03/20 01:17:02;;;;;;;25.75;10.77;;;14.70;50.70;;;;;;6123997;28;20045;-67
2022/03/20 01:20:05;;;;;;;25.35;11.65;;;14.60;50.90;;;;;;6123174;28;20044;-68
2022/03/20 01:23:06;;;;;;;26.27;12.02;;;14.60;51.00;;;;;;6122122;28;20053;-69
2022/03/20 01:26:07;;;;;;;27.77;11.85;;;14.50;51.10;;;;;;6123529;28;20393;-66
2022/03/20 01:29:08;;;;;;;27.98;11.32;;;14.50;51.20;;;;;;6123196;28;20106;-67
2022/03/20 01:32:10;;;;;;;27.55;11.57;;;14.50;51.20;;;;;;6105558;28;20043;-66
2022/03/20 01:35:11;;;;;;;36.33;13.30;;;14.50;51.30;;;;;;6121805;28;20449;-66
2022/03/20 01:38:18;;;;;;;31.88;11.65;;;14.40;51.40;;;;;;6097914;28;20614;-67
2022/03/20 01:41:19;;;;;;;23.85;11.48;;;14.40;51.60;;;;;;6123393;28;20044;-66
2022/03/20 01:44:20;;;;;;;24.33;12.05;;;14.30;51.70;;;;;;6113039;28;20127;-67
2022/03/20 01:47:21;;;;;;;26.33;11.57;;;14.30;51.70;;;;;;6122105;28;20052;-68
2022/03/20 01:50:24;;;;;;;32.30;11.88;;;14.20;51.80;;;;;;6122403;28;20035;-67
2022/03/20 01:53:27;;;;;;;24.95;11.57;;;14.20;51.90;;;;;;6121989;28;20044;-67
2022/03/20 01:56:32;;;;;;;27.38;11.52;;;14.20;52.00;;;;;;6121669;28;20024;-67
2022/03/20 01:59:34;;;;;;;37.25;12.38;;;14.20;52.00;;;;;;6121837;28;20039;-67
2022/03/20 02:02:34;;;;;;;30.95;11.93;;;14.20;52.10;;;;;;6122054;28;20093;-67
2022/03/20 02:05:37;;;;;;;30.33;11.85;;;14.10;52.20;;;;;;6098479;28;20489;-67
2022/03/20 02:08:38;;;;;;;26.17;11.98;;;14.10;52.20;;;;;;6123562;28;20080;-66
2022/03/20 02:11:42;;;;;;;27.58;11.55;;;14.10;52.20;;;;;;6121976;28;20074;-66
2022/03/20 02:14:43;;;;;;;29.27;11.30;;;14.00;52.10;;;;;;6122038;28;20438;-67
2022/03/20 02:17:45;;;;;;;25.77;11.38;;;14.00;52.20;;;;;;6121902;28;20054;-66
2022/03/20 02:20:57;;;;;;;34.15;11.82;;;13.90;52.20;;;;;;6121893;28;20028;-66
2022/03/20 02:23:58;;;;;;;40.05;13.13;;;13.90;52.20;;;;;;6112076;28;20039;-67
2022/03/20 02:27:15;;;;;;;27.02;12.15;;;13.90;52.20;;;;;;6121763;28;20551;-67
2022/03/20 02:30:18;;;;;;;28.63;11.00;;;13.80;52.30;;;;;;6121060;28;20366;-67
2022/03/20 02:33:23;;;;;;;32.33;12.32;;;13.80;52.40;;;;;;6120727;28;20043;-66
2022/03/20 02:36:23;;;;;;;37.40;11.85;;;13.80;52.30;;;;;;6137444;28;21258;-67
2022/03/20 02:39:24;;;;;;;32.97;12.30;;;13.80;52.30;;;;;;6125251;28;20036;-67
2022/03/20 02:42:26;;;;;;;28.30;11.90;;;13.70;52.40;;;;;;6125871;28;20054;-67
2022/03/20 02:45:29;;;;;;;30.55;11.20;;;13.70;52.60;;;;;;6124423;28;20044;-67
2022/03/20 02:48:30;;;;;;;25.77;12.45;;;13.60;52.80;;;;;;6124178;28;20063;-67
2022/03/20 02:51:31;;;;;;;24.42;11.60;;;13.60;53.30;;;;;;6124676;28;20102;-66
2022/03/20 02:54:36;;;;;;;27.92;12.60;;;13.60;52.80;;;;;;6102758;29;20123;-67
2022/03/20 02:57:36;;;;;;;34.30;12.38;;;13.50;53.40;;;;;;6124394;28;20055;-66
2022/03/20 03:00:41;;;;;;;31.13;12.43;;;13.50;52.80;;;;;;6118426;28;20039;-67
2022/03/20 03:03:45;;;;;;;26.65;11.35;;;13.50;52.90;;;;;;6124460;28;20353;-66
2022/03/20 03:06:46;;;;;;;33.08;12.65;;;13.50;53.00;;;;;;6128011;28;20044;-67
2022/03/20 03:13:10;;;;;;;32.78;12.15;;;13.30;53.10;;;;;;6128976;28;20052;-67
2022/03/20 03:16:13;;;;;;;28.73;12.07;;;13.30;53.10;;;;;;6123901;28;20066;-67
2022/03/20 03:19:15;;;;;;;40.08;12.20;;;13.20;53.70;;;;;;6128445;28;20040;-68
2022/03/20 03:22:18;;;;;;;41.90;13.18;;;13.20;53.10;;;;;;6126102;28;20105;-67
2022/03/20 03:25:20;;;;;;;30.50;12.68;;;13.20;53.10;;;;;;6112095;28;20115;-67
2022/03/20 03:28:23;;;;;;;31.67;11.77;;;13.20;53.10;;;;;;6128484;28;20397;-67
2022/03/20 03:31:24;;;;;;;29.92;12.77;;;13.20;53.10;;;;;;6129362;28;20031;-67
2022/03/20 03:37:45;;;;;;;24.20;11.27;;;13.10;53.10;;;;;;6127611;28;20057;-67
2022/03/20 03:40:47;;;;;;;32.40;12.35;;;13.10;53.10;;;;;;6127783;28;20448;-67
2022/03/20 03:43:48;;;;;;;25.30;11.68;;;13.00;53.10;;;;;;6126536;28;20035;-67
2022/03/20 03:46:50;;;;;;;35.03;12.20;;;13.00;53.10;;;;;;6126669;28;20114;-67
2022/03/20 03:49:51;;;;;;;27.13;11.73;;;13.00;53.10;;;;;;6126804;28;20043;-67
2022/03/20 03:52:52;;;;;;;39.78;13.10;;;13.00;53.10;;;;;;6125314;28;20429;-67
2022/03/20 03:55:54;;;;;;;29.50;11.90;;;13.00;53.10;;;;;;6125474;28;20051;-67
2022/03/20 03:58:54;;;;;;;31.63;11.93;;;13.00;53.10;;;;;;6124424;28;20032;-67
2022/03/20 04:01:55;;;;;;;29.90;13.15;;;13.10;53.10;;;;;;6124917;28;20127;-67
2022/03/20 04:04:56;;;;;;;29.40;11.88;;;13.10;53.00;;;;;;6125174;28;20070;-67
2022/03/20 04:07:57;;;;;;;33.45;13.00;;;13.10;53.10;;;;;;6125274;28;20413;-67
2022/03/20 04:10:58;;;;;;;30.85;13.02;;;13.00;53.10;;;;;;6124766;28;20042;-66
2022/03/20 04:13:59;;;;;;;30.35;12.50;;;13.00;53.20;;;;;;6113755;28;20441;-66
2022/03/20 04:17:00;;;;;;;27.40;12.27;;;13.00;53.30;;;;;;6135592;28;20048;-68
2022/03/20 04:20:02;;;;;;;30.15;12.98;;;13.00;53.30;;;;;;6125235;28;20046;-66
2022/03/20 04:26:23;;;;;;;28.63;12.23;;;13.00;53.40;;;;;;6124693;28;20055;-68
2022/03/20 04:29:27;;;;;;;33.58;13.05;;;13.00;53.50;;;;;;6123726;28;20468;-67
2022/03/20 04:32:30;;;;;;;32.28;11.57;;;13.00;53.60;;;;;;6123520;28;20032;-68
2022/03/20 04:35:31;;;;;;;28.48;12.45;;;13.00;53.80;;;;;;6125426;28;20055;-67
2022/03/20 04:38:32;;;;;;;27.48;11.85;;;13.00;54.00;;;;;;6124691;28;20378;-67
2022/03/20 04:41:33;;;;;;;27.38;11.25;;;13.00;54.20;;;;;;6123139;28;20051;-68
2022/03/20 04:44:34;;;;;;;33.97;10.85;;;12.90;54.40;;;;;;6124367;28;20039;-67
2022/03/20 05:00:54;;;;;;;31.65;12.23;;;12.60;54.90;;;;;;6124766;28;20461;-67
2022/03/20 05:03:55;;;;;;;29.95;11.73;;;12.60;55.00;;;;;;6121684;28;20043;-67
2022/03/20 05:06:56;;;;;;;32.28;10.95;;;12.60;55.10;;;;;;6123689;28;20381;-66
2022/03/20 05:13:22;;;;;;;35.03;11.40;;;12.60;55.10;;;;;;6117399;28;20127;-68
2022/03/20 05:16:22;;;;;;;34.33;10.88;;;12.60;55.20;;;;;;6123589;28;20043;-67
2022/03/20 05:19:23;;;;;;;30.10;11.25;;;12.60;55.20;;;;;;6123179;28;20039;-68
2022/03/20 05:22:24;;;;;;;27.92;11.45;;;12.50;55.30;;;;;;6121846;28;20105;-69
2022/03/20 05:25:28;;;;;;;25.42;9.90;;;12.50;55.40;;;;;;6123762;28;20475;-68
2022/03/20 05:28:29;;;;;;;28.42;10.95;;;12.50;55.40;;;;;;6122469;28;20126;-68
2022/03/20 05:31:30;;;;;;;25.27;11.32;;;12.50;55.50;;;;;;6123492;28;20039;-67
2022/03/20 05:34:33;;;;;;;36.58;12.43;;;12.50;55.60;;;;;;6123589;28;20047;-66
2022/03/20 05:37:34;;;;;;;27.25;11.10;;;12.40;55.60;;;;;;6095344;28;20035;-67
2022/03/20 05:40:40;;;;;;;28.50;11.68;;;12.50;55.60;;;;;;6123917;28;20472;-67
2022/03/20 05:43:41;;;;;;;34.05;11.18;;;12.50;55.70;;;;;;6118072;28;20032;-67
2022/03/20 05:46:46;;;;;;;33.00;11.45;;;12.40;55.60;;;;;;6122771;28;20118;-67
2022/03/20 05:49:47;;;;;;;29.73;12.07;;;12.40;55.70;;;;;;6123901;28;20055;-67
2022/03/20 05:52:47;;;;;;;32.15;11.32;;;12.40;55.60;;;;;;6124862;28;20036;-67
2022/03/20 05:59:08;;;;;;;26.52;11.45;;;12.50;55.60;;;;;;6122720;28;20151;-67
2022/03/20 06:02:10;;;;;;;24.70;10.60;;;12.50;55.50;;;;;;6122184;28;20161;-67
2022/03/20 06:05:12;;;;;;;38.65;12.43;;;12.50;55.60;;;;;;6120826;28;20054;-68
2022/03/20 06:08:13;;;;;;;22.77;10.98;;;12.50;55.60;;;;;;6123910;28;20040;-68
2022/03/20 06:11:15;;;;;;;26.45;10.23;;;12.50;55.70;;;;;;6124325;28;20059;-69
2022/03/20 06:14:17;;;;;;;28.95;10.50;;;12.50;55.70;;;;;;6112330;28;20476;-67
2022/03/20 06:17:18;;;;;;;21.08;10.02;;;12.50;55.60;;;;;;6123290;28;20036;-67
2022/03/20 06:20:19;;;;;;;24.98;10.38;;;12.50;55.60;;;;;;6124250;28;20066;-68
2022/03/20 06:23:20;;;;;;;32.55;11.30;;;12.50;55.60;;;;;;6124083;28;20044;-67
2022/03/20 06:26:23;;;;;;;29.50;11.25;;;12.50;55.50;;;;;;6123056;28;20043;-67
2022/03/20 06:29:23;;;;;;;22.92;10.60;;;12.50;55.50;;;;;;6124013;28;20043;-67
2022/03/20 06:32:27;;;;;;;24.50;9.70;;;12.50;55.50;;;;;;6106227;28;20039;-67
2022/03/20 06:35:28;;;;;;;25.90;10.57;;;12.50;55.70;;;;;;6122245;28;20032;-66
2022/03/20 06:38:30;;;;;;;29.52;12.13;;;12.40;55.70;;;;;;6122958;28;20122;-67
2022/03/20 06:41:31;;;;;;;25.05;10.30;;;12.40;55.80;;;;;;6101518;28;20354;-67
2022/03/20 06:44:31;;;;;;;24.85;10.48;;;12.40;55.90;;;;;;6127392;28;20032;-67
2022/03/20 06:47:32;;;;;;;33.38;12.38;;;12.40;55.90;;;;;;6129480;28;20186;-67
2022/03/20 06:50:34;;;;;;;30.95;11.73;;;12.40;55.90;;;;;;6127556;28;20036;-67
2022/03/20 06:53:35;;;;;;;33.22;12.35;;;12.40;56.20;;;;;;6126454;28;20111;-67
2022/03/20 06:56:37;;;;;;;47.55;12.25;;;12.40;56.00;;;;;;6127293;28;20032;-67
2022/03/20 06:59:38;;;;;;;32.25;13.02;;;12.50;56.10;;;;;;6127506;28;20027;-67
2022/03/20 07:02:38;;;;;;;33.22;13.65;;;12.50;55.90;;;;;;6127682;28;20036;-66
2022/03/20 07:05:39;;;;;;;30.10;12.18;;;12.60;56.00;;;;;;6122293;28;20461;-67
2022/03/20 07:08:40;;;;;;;29.73;12.63;;;12.60;55.90;;;;;;6133072;28;20035;-67
2022/03/20 07:11:41;;;;;;;28.55;12.77;;;12.70;55.90;;;;;;6126786;28;20472;-67
2022/03/20 07:14:42;;;;;;;47.00;13.07;;;12.80;55.80;;;;;;6109272;28;20174;-67
2022/03/20 07:17:44;;;;;;;36.50;12.52;;;12.90;55.70;;;;;;6127534;28;20066;-67
2022/03/20 07:20:47;;;;;;;31.08;12.68;;;13.00;55.50;;;;;;6127166;28;20068;-67
2022/03/20 07:23:48;;;;;;;35.97;13.13;;;13.10;55.40;;;;;;6127367;28;20060;-67
2022/03/20 07:30:08;;;;;;;38.20;14.68;;;13.30;55.10;;;;;;6125859;28;20032;-67
2022/03/20 07:33:11;;;;;;;31.73;13.07;;;13.50;54.70;;;;;;6126262;28;20046;-68
2022/03/20 07:36:12;;;;;;;27.00;12.40;;;13.70;54.50;;;;;;6125337;28;20047;-67
2022/03/20 07:39:13;;;;;;;35.22;14.32;;;13.80;54.20;;;;;;6123697;28;20048;-67
2022/03/20 07:42:17;;;;;;;29.83;13.30;;;14.10;54.00;;;;;;6120393;28;20369;-67
2022/03/20 07:45:22;;;;;;;29.13;12.40;;;14.10;53.60;;;;;;6121167;28;20043;-67
2022/03/20 07:48:24;;;;;;;31.00;13.38;;;14.20;53.30;;;;;;6102442;28;20489;-67
2022/03/20 07:51:24;;;;;;;33.75;12.60;;;14.30;53.10;;;;;;6126438;28;20062;-67
2022/03/20 07:54:26;;;;;;;42.88;13.02;;;14.30;52.80;;;;;;6125265;28;20047;-67
2022/03/20 07:57:27;;;;;;;40.10;13.25;;;14.30;52.60;;;;;;6104648;28;20124;-67
2022/03/20 08:00:28;;;;;;;29.20;13.27;;;14.40;52.60;;;;;;6125691;28;20054;-67
2022/03/20 08:03:28;;;;;;;36.25;13.30;;;14.30;52.40;;;;;;6124494;28;20040;-69
2022/03/20 08:06:31;;;;;;;29.88;13.38;;;14.40;52.40;;;;;;6108541;28;20204;-67
2022/03/20 08:09:31;;;;;;;26.67;11.35;;;14.40;52.30;;;;;;6125626;28;20067;-67
2022/03/20 08:12:34;;;;;;;33.17;13.80;;;14.50;52.30;;;;;;6124973;28;20036;-67
2022/03/20 08:15:35;;;;;;;32.28;13.48;;;14.50;52.20;;;;;;6117827;28;20447;-67
2022/03/20 08:18:37;;;;;;;31.83;13.35;;;14.60;52.10;;;;;;6125153;28;20450;-67
2022/03/20 08:21:39;;;;;;;28.60;12.68;;;14.80;51.90;;;;;;6125265;28;20043;-67
2022/03/20 08:24:41;;;;;;;34.15;12.55;;;15.00;51.60;;;;;;6126082;28;20486;-67
2022/03/20 08:27:44;;;;;;;27.75;12.40;;;15.10;51.30;;;;;;6125001;28;20115;-67
2022/03/20 08:30:45;;;;;;;30.13;13.93;;;15.30;51.00;;;;;;6123492;28;20366;-66
2022/03/20 08:33:46;;;;;;;30.73;13.77;;;15.50;50.70;;;;;;6116839;28;20059;-69
2022/03/20 08:36:47;;;;;;;27.90;12.82;;;15.60;50.40;;;;;;6105318;28;20071;-66
2022/03/20 08:39:48;;;;;;;31.83;12.80;;;15.80;50.20;;;;;;6124911;28;20524;-65
2022/03/20 08:47:10;;;;;;;28.95;12.70;;;15.80;49.60;;;;;;6127596;28;20036;-65
2022/03/20 08:50:13;;;;;;;28.50;12.43;;;15.80;49.20;;;;;;6126851;28;20055;-66
2022/03/20 08:53:14;;;;;;;26.58;13.73;;;15.90;48.90;;;;;;6114816;29;20036;-66
2022/03/20 08:56:15;;;;;;;29.35;13.30;;;15.90;48.60;;;;;;6126863;28;20421;-66
2022/03/20 08:59:19;;;;;;;29.77;13.70;;;16.00;48.40;;;;;;6126933;28;20048;-68
2022/03/20 09:02:23;;;;;;;31.37;13.13;;;16.20;48.30;;;;;;6110555;28;20067;-66
2022/03/20 09:05:24;;;;;;;34.75;13.38;;;16.30;48.00;;;;;;6121715;28;20039;-65
2022/03/20 09:08:25;;;;;;;30.50;12.88;;;16.40;47.60;;;;;;6126437;28;20043;-65
2022/03/20 09:11:26;;;;;;;34.47;13.90;;;16.40;47.70;;;;;;6106306;28;20042;-65
2022/03/20 09:14:27;;;;;;;35.78;13.23;;;16.50;47.70;;;;;;6109697;28;20464;-65
2022/03/20 09:20:49;;;;;;;26.73;13.75;;;16.60;47.50;;;;;;6116764;28;20062;-66
2022/03/20 09:23:50;;;;;;;34.05;14.90;;;16.70;47.40;;;;;;6120670;28;20126;-65
2022/03/20 09:26:51;;;;;;;32.60;13.75;;;16.70;47.20;;;;;;6107657;28;20071;-65
2022/03/20 09:29:52;;;;;;;35.70;14.00;;;16.90;47.10;;;;;;6125168;28;20064;-64
2022/03/20 09:32:52;;;;;;;32.70;13.77;;;17.00;46.70;;;;;;6107942;28;20035;-64
2022/03/20 09:35:54;;;;;;;33.97;13.88;;;17.00;46.60;;;;;;6120630;28;20063;-65
2022/03/20 09:38:54;;;;;;;35.33;14.05;;;17.10;46.50;;;;;;6126762;28;20056;-67
2022/03/20 09:41:58;;;;;;;36.33;13.40;;;17.20;46.20;;;;;;6125147;28;20481;-65
2022/03/20 09:44:59;;;;;;;41.63;12.48;;;17.20;45.90;;;;;;6125209;28;20043;-65
2022/03/20 09:48:01;;;;;;;34.35;12.52;;;17.30;45.70;;;;;;6125302;28;20069;-65
2022/03/20 09:51:04;;;;;;;30.33;11.82;;;17.40;45.50;;;;;;6126307;28;20334;-66
2022/03/20 09:54:06;;;;;;;27.77;10.85;;;17.60;45.30;;;;;;6109017;28;20032;-65
2022/03/20 09:57:08;;;;;;;26.33;11.07;;;17.70;44.70;;;;;;6125190;28;20175;-64
2022/03/20 10:00:11;;;;;;;24.05;10.70;;;17.80;44.40;;;;;;6126760;28;20040;-65
2022/03/20 10:03:35;;;;;;;24.52;10.18;;;17.90;43.70;;;;;;6124992;28;20032;-64
2022/03/20 10:06:37;;;;;;;22.33;10.20;;;18.00;43.30;;;;;;6107344;28;20057;-64
2022/03/20 10:09:38;;;;;;;27.98;10.82;;;18.10;43.00;;;;;;6108872;28;20123;-65
2022/03/20 10:12:46;;;;;;;25.52;10.23;;;18.10;42.90;;;;;;6125766;28;20040;-65
2022/03/20 10:15:47;;;;;;;29.33;10.80;;;18.20;42.80;;;;;;6123825;28;20421;-67
2022/03/20 10:18:48;;;;;;;22.48;9.82;;;18.30;42.60;;;;;;6128980;28;20040;-67
2022/03/20 10:21:55;;;;;;;19.98;9.68;;;18.40;42.30;;;;;;6128657;28;20055;-68
2022/03/20 10:24:56;;;;;;;26.42;9.52;;;18.30;41.70;;;;;;6130671;28;20392;-67
2022/03/20 10:28:11;;;;;;;18.50;9.45;;;18.40;42.00;;;;;;6129919;28;20044;-67
2022/03/20 10:31:20;;;;;;;23.35;9.43;;;18.40;41.20;;;;;;6113262;28;20358;-68
2022/03/20 10:34:23;;;;;;;28.17;9.55;;;18.40;41.10;;;;;;6128388;28;20036;-68
2022/03/20 10:37:50;;;;;;;25.83;10.35;;;18.50;41.00;;;;;;6115433;28;20040;-68
2022/03/20 10:40:50;;;;;;;22.10;9.52;;;18.60;40.70;;;;;;6127729;28;20054;-68
2022/03/20 10:43:56;;;;;;;23.52;8.48;;;18.70;40.60;;;;;;6129788;28;20462;-66
2022/03/20 10:47:04;;;;;;;26.30;9.55;;;18.80;40.40;;;;;;6113736;28;20050;-77
2022/03/20 10:50:08;;;;;;;17.20;8.30;;;18.90;40.20;;;;;;6124448;28;20535;-71
2022/03/20 10:53:09;;;;;;;19.10;8.65;;;19.10;40.10;;;;;;6130248;28;20040;-71
2022/03/20 10:56:10;;;;;;;19.10;8.38;;;19.20;39.80;;;;;;6130759;28;20055;-70
2022/03/20 10:59:15;;;;;;;24.40;8.32;;;19.40;40.30;;;;;;6128565;28;20035;-70
2022/03/20 11:02:24;;;;;;;27.52;8.73;;;19.50;39.90;;;;;;6129497;28;20078;-70
2022/03/20 11:05:25;;;;;;;20.17;9.30;;;19.70;40.10;;;;;;6128470;28;20477;-70
2022/03/20 11:08:26;;;;;;;21.02;8.68;;;19.90;39.40;;;;;;6127990;28;20187;-70
2022/03/20 11:11:27;;;;;;;22.42;8.32;;;20.00;38.70;;;;;;6128444;28;20036;-70
2022/03/20 11:14:28;;;;;;;16.40;8.20;;;20.00;38.10;;;;;;6125880;28;20126;-71
2022/03/20 11:17:44;;;;;;;19.45;8.75;;;20.00;37.90;;;;;;6128218;28;20032;-72
2022/03/20 11:20:46;;;;;;;24.83;8.73;;;19.90;37.60;;;;;;6127360;28;20103;-72
2022/03/20 11:23:47;;;;;;;18.70;8.30;;;19.90;37.20;;;;;;6127158;28;20031;-72
2022/03/20 11:26:52;;;;;;;19.17;8.10;;;19.80;37.20;;;;;;6125990;28;20040;-72
2022/03/20 11:30:13;;;;;;;19.90;8.45;;;19.90;37.20;;;;;;6127360;28;20035;-72
2022/03/20 11:33:14;;;;;;;18.00;8.23;;;20.00;36.90;;;;;;6107744;28;20118;-72
2022/03/20 11:36:15;;;;;;;21.92;8.48;;;20.20;36.40;;;;;;6120997;28;20039;-71
2022/03/20 11:39:16;;;;;;;24.15;7.22;;;20.50;36.00;;;;;;6125592;28;20079;-73
2022/03/20 11:42:23;;;;;;;19.90;7.28;;;20.80;35.50;;;;;;6125704;28;20031;-73
2022/03/20 11:45:24;;;;;;;20.67;7.85;;;21.20;34.90;;;;;;6109446;28;20043;-72
2022/03/20 11:48:25;;;;;;;19.05;7.07;;;21.60;34.10;;;;;;6119060;28;20047;-72
2022/03/20 11:51:54;;;;;;;22.08;7.40;;;21.90;33.60;;;;;;6108838;28;20489;-71
2022/03/20 11:54:57;;;;;;;25.20;7.50;;;22.20;33.00;;;;;;6103134;28;20036;-71
2022/03/20 11:58:08;;;;;;;13.43;6.85;;;22.50;32.70;;;;;;6104076;28;20036;-72
2022/03/20 12:01:12;;;;;;;14.07;6.90;;;22.60;31.40;;;;;;6123923;28;20040;-73
2022/03/20 12:04:14;;;;;;;19.27;6.72;;;22.40;31.30;;;;;;6102382;28;20095;-71
2022/03/20 12:07:44;;;;;;;14.43;6.43;;;22.30;31.40;;;;;;6125048;28;20095;-73
2022/03/20 12:11:04;;;;;;;19.02;7.55;;;22.10;31.80;;;;;;6060722;29;20135;-68
2022/03/20 12:14:37;;;;;;;21.25;7.05;;;21.90;31.80;;;;;;6068984;29;20037;-68
2022/03/20 12:18:00;;;;;;;16.15;6.68;;;21.80;32.00;;;;;;6076059;29;20506;-68
2022/03/20 12:21:02;;;;;;;13.88;6.20;;;21.80;31.90;;;;;;6057239;29;20367;-69
2022/03/20 12:24:35;;;;;;;18.17;6.53;;;21.90;31.70;;;;;;6060817;29;20084;-69
2022/03/20 12:27:36;;;;;;;16.35;6.75;;;21.90;31.60;;;;;;6070470;29;20454;-69
2022/03/20 12:30:37;;;;;;;21.58;6.60;;;22.00;31.30;;;;;;6040601;29;20423;-69
2022/03/20 12:33:38;;;;;;;11.77;5.95;;;22.10;31.00;;;;;;6059287;29;20043;-69
2022/03/20 12:36:41;;;;;;;9.82;5.65;;;22.10;30.80;;;;;;6076138;29;20100;-69
2022/03/20 12:39:54;;;;;;;16.52;6.28;;;22.00;30.40;;;;;;6056086;29;20032;-68
2022/03/20 12:42:58;;;;;;;10.73;6.03;;;21.90;30.30;;;;;;6055322;29;20083;-68
2022/03/20 12:46:00;;;;;;;17.10;6.63;;;21.90;30.40;;;;;;6070998;28;20044;-69
2022/03/20 12:49:03;;;;;;;13.52;5.95;;;21.70;30.30;;;;;;6124866;28;20118;-69
2022/03/20 12:52:04;;;;;;;14.38;5.75;;;21.70;30.60;;;;;;6124396;28;20042;-69
2022/03/20 12:55:08;;;;;;;9.85;5.22;;;21.60;30.60;;;;;;6125192;28;20055;-69
2022/03/20 12:58:16;;;;;;;14.10;5.53;;;21.60;30.50;;;;;;6123597;28;20040;-69
2022/03/20 13:01:17;;;;;;;14.05;6.38;;;21.50;30.60;;;;;;6123772;28;20031;-69
2022/03/20 13:04:19;;;;;;;11.23;5.50;;;21.30;30.60;;;;;;6124006;28;20043;-68
2022/03/20 13:07:26;;;;;;;12.43;5.63;;;21.30;30.80;;;;;;6123538;28;20358;-69
2022/03/20 13:10:37;;;;;;;17.45;5.50;;;21.30;30.50;;;;;;6118833;28;20028;-68
2022/03/20 13:13:38;;;;;;;23.23;5.85;;;21.40;30.70;;;;;;6118836;28;20067;-69
2022/03/20 13:16:59;;;;;;;11.32;4.95;;;21.40;30.60;;;;;;6120532;28;20091;-69
2022/03/20 13:20:16;;;;;;;12.48;5.28;;;21.40;30.40;;;;;;6120628;28;20111;-69
2022/03/20 13:23:22;;;;;;;8.68;4.53;;;21.40;30.10;;;;;;6118640;28;20476;-69
2022/03/20 13:26:23;;;;;;;14.43;4.35;;;21.50;29.80;;;;;;6118613;28;20047;-69
2022/03/20 13:29:24;;;;;;;7.10;3.83;;;21.50;29.80;;;;;;6118572;28;20055;-69
2022/03/20 13:32:25;;;;;;;13.07;4.25;;;21.50;29.70;;;;;;6119993;28;20381;-69
2022/03/20 13:35:26;;;;;;;6.68;3.55;;;21.40;29.60;;;;;;6119998;28;20059;-69
2022/03/20 13:38:35;;;;;;;12.00;4.05;;;21.30;29.50;;;;;;6120464;28;20043;-69
2022/03/20 13:41:41;;;;;;;11.60;3.72;;;21.20;29.50;;;;;;6109976;28;20091;-68
2022/03/20 13:44:43;;;;;;;15.63;4.47;;;21.20;29.50;;;;;;6125017;28;20031;-68
2022/03/20 13:47:44;;;;;;;12.10;4.30;;;21.20;29.80;;;;;;6123888;28;20042;-68
2022/03/20 13:50:49;;;;;;;15.07;5.07;;;21.20;29.70;;;;;;6121047;28;20082;-68
2022/03/20 13:54:29;;;;;;;12.75;5.43;;;21.10;29.60;;;;;;6120865;28;20457;-67
2022/03/20 13:57:32;;;;;;;11.50;4.47;;;21.00;29.90;;;;;;6047513;29;20033;-67
2022/03/20 14:00:38;;;;;;;10.35;4.63;;;20.90;30.00;;;;;;6036124;29;20111;-69
2022/03/20 14:03:40;;;;;;;10.02;4.78;;;20.90;30.20;;;;;;6036225;29;20451;-68
2022/03/20 14:06:43;;;;;;;23.38;5.68;;;20.90;30.10;;;;;;6050903;29;20059;-67
2022/03/20 14:09:46;;;;;;;8.35;4.47;;;20.90;30.10;;;;;;6036445;29;20428;-69
2022/03/20 14:12:47;;;;;;;16.85;5.40;;;20.80;30.10;;;;;;6036618;29;20041;-69
2022/03/20 14:16:08;;;;;;;11.82;4.32;;;20.60;30.10;;;;;;6017726;29;20041;-68
2022/03/20 14:19:11;;;;;;;12.57;5.05;;;20.60;30.50;;;;;;6050482;29;20037;-67
2022/03/20 14:22:13;;;;;;;11.68;4.88;;;20.50;30.50;;;;;;6029865;29;20148;-68
2022/03/20 14:25:36;;;;;;;13.85;5.00;;;20.40;30.50;;;;;;6050533;29;20045;-68
2022/03/20 14:28:38;;;;;;;10.95;4.82;;;20.30;30.70;;;;;;6103557;28;20047;-68
2022/03/20 14:41:59;;;;;;;19.50;5.68;;;20.10;31.60;;;;;;6123322;28;20070;-67
2022/03/20 14:45:01;;;;;;;17.33;6.10;;;20.10;31.70;;;;;;6096789;29;20039;-67
2022/03/20 14:48:02;;;;;;;13.07;5.00;;;20.10;31.90;;;;;;6115712;28;20368;-68
2022/03/20 14:51:03;;;;;;;12.57;5.05;;;20.10;32.20;;;;;;6107065;28;20031;-68
2022/03/20 14:54:05;;;;;;;15.88;5.68;;;20.00;32.30;;;;;;6109859;28;20040;-68
2022/03/20 14:57:07;;;;;;;17.10;5.50;;;20.00;32.20;;;;;;6122459;28;20039;-68
2022/03/20 15:00:08;;;;;;;10.00;5.38;;;20.00;32.20;;;;;;6105845;28;20107;-69
2022/03/20 15:03:09;;;;;;;12.18;5.85;;;19.90;32.40;;;;;;6125618;28;20402;-68
2022/03/20 15:06:10;;;;;;;14.00;5.28;;;19.80;32.60;;;;;;6127114;28;20432;-69
2022/03/20 15:12:31;;;;;;;12.65;4.88;;;19.80;32.70;;;;;;6127552;28;20032;-68
2022/03/20 15:15:32;;;;;;;10.45;5.65;;;19.80;32.50;;;;;;6125298;28;20035;-68
2022/03/20 15:18:34;;;;;;;10.00;5.30;;;19.80;32.50;;;;;;6126677;28;20046;-69
2022/03/20 15:21:34;;;;;;;15.27;6.03;;;19.80;32.60;;;;;;6127550;28;20051;-68
2022/03/20 15:24:37;;;;;;;11.68;5.55;;;19.80;32.70;;;;;;6126394;28;20040;-68
2022/03/20 15:27:38;;;;;;;11.05;5.43;;;19.80;32.80;;;;;;6123896;28;20488;-69
2022/03/20 15:30:39;;;;;;;11.73;4.88;;;19.70;32.80;;;;;;6124432;28;20137;-68
2022/03/20 15:33:41;;;;;;;20.52;5.55;;;19.70;32.80;;;;;;6108557;28;20457;-68
2022/03/20 15:36:43;;;;;;;17.83;5.57;;;19.70;32.80;;;;;;6126904;28;20051;-68
2022/03/20 15:39:44;;;;;;;13.27;5.65;;;19.70;32.90;;;;;;6126103;28;20343;-68
2022/03/20 15:42:45;;;;;;;12.07;5.53;;;19.60;33.00;;;;;;6125880;28;20032;-69
2022/03/20 15:45:46;;;;;;;9.57;4.85;;;19.50;33.20;;;;;;6127012;28;20385;-69
2022/03/20 15:48:47;;;;;;;17.83;5.75;;;19.50;33.50;;;;;;6125850;28;20040;-69
2022/03/20 15:51:48;;;;;;;17.40;5.90;;;19.40;33.60;;;;;;6125836;28;20052;-69
2022/03/20 15:54:50;;;;;;;12.25;5.57;;;19.40;33.70;;;;;;6125666;28;20384;-67
2022/03/20 15:57:52;;;;;;;13.43;5.93;;;19.40;33.80;;;;;;6125893;28;20043;-69
2022/03/20 16:00:52;;;;;;;17.42;5.53;;;19.40;33.90;;;;;;6125570;28;20401;-68
2022/03/20 16:03:53;;;;;;;11.75;5.38;;;19.40;33.90;;;;;;6124404;28;20032;-68
2022/03/20 16:06:54;;;;;;;17.02;5.97;;;19.30;33.90;;;;;;6126649;28;20040;-68
2022/03/20 16:09:55;;;;;;;18.67;6.03;;;19.20;34.00;;;;;;6126264;28;20144;-68
2022/03/20 16:13:01;;;;;;;12.57;6.20;;;19.20;34.20;;;;;;6123969;28;20046;-68
2022/03/20 16:16:02;;;;;;;12.30;5.70;;;19.10;34.30;;;;;;6125460;28;20409;-68
2022/03/20 16:19:03;;;;;;;19.42;6.03;;;19.20;34.40;;;;;;6126858;28;20414;-68
2022/03/20 16:22:04;;;;;;;13.07;5.75;;;19.10;34.30;;;;;;6127213;28;20032;-68
2022/03/20 16:28:32;;;;;;;12.35;6.00;;;19.20;34.30;;;;;;6122752;28;20087;-68
2022/03/20 16:31:33;;;;;;;18.45;5.72;;;19.20;34.30;;;;;;6125418;28;20393;-68